createdAt,value
2023-03-20T00:01:35.464Z,57.43
2023-03-20T00:06:38.003Z,53.83
2023-03-20T00:11:48.787Z,50.33
2023-03-20T00:16:52.046Z,37.60
2023-03-20T00:21:55.471Z,46.90
2023-03-20T00:26:57.983Z,50.70
2023-03-20T00:32:00.670Z,41.57
2023-03-20T00:37:03.652Z,35.50
2023-03-20T00:42:07.747Z,53.50
2023-03-20T00:47:16.860Z,46.60
2023-03-20T00:52:20.715Z,36.07
2023-03-20T00:57:29.024Z,59.83
2023-03-20T01:02:32.084Z,66.53
2023-03-20T01:07:35.545Z,63.07
2023-03-20T01:12:43.435Z,80.50
2023-03-20T01:17:46.902Z,53.13
2023-03-20T01:22:49.412Z,45.40
2023-03-20T01:27:54.384Z,67.77
2023-03-20T01:33:01.811Z,91.23
2023-03-20T01:38:12.646Z,95.67
2023-03-20T01:43:18.672Z,95.07
2023-03-20T01:48:48.077Z,93.67
2023-03-20T01:53:56.669Z,70.37
2023-03-20T01:59:24.428Z,56.40
2023-03-20T02:04:33.896Z,63.63
2023-03-20T02:09:44.124Z,50.60
2023-03-20T02:14:53.291Z,60.43
2023-03-20T02:20:41.612Z,64.80
2023-03-20T02:26:16.374Z,55.47
2023-03-20T02:31:39.114Z,72.30
2023-03-20T02:37:06.007Z,64.83
2023-03-20T02:42:22.005Z,74.20
2023-03-20T02:47:31.796Z,69.73
2023-03-20T02:53:08.652Z,77.13
2023-03-20T02:58:30.980Z,72.47
2023-03-20T03:03:56.535Z,93.63
2023-03-20T03:09:09.671Z,89.43
2023-03-20T03:14:29.477Z,93.33
2023-03-20T03:19:33.757Z,83.83
2023-03-20T03:24:41.685Z,85.17
2023-03-20T03:29:57.853Z,97.03
2023-03-20T03:35:02.447Z,83.60
2023-03-20T03:40:17.689Z,93.10
2023-03-20T03:45:34.027Z,84.73
2023-03-20T03:50:48.989Z,82.17
2023-03-20T03:55:57.900Z,95.97
2023-03-20T04:01:03.343Z,72.73
2023-03-20T04:06:08.882Z,96.00
2023-03-20T04:11:20.591Z,90.63
2023-03-20T04:16:25.876Z,86.60
2023-03-20T04:21:29.379Z,96.93
2023-03-20T04:26:32.159Z,95.73
2023-03-20T04:31:35.055Z,98.73
2023-03-20T04:36:47.898Z,81.97
2023-03-20T04:41:52.480Z,94.50
2023-03-20T04:46:55.404Z,89.87
2023-03-20T04:51:58.234Z,90.70
2023-03-20T04:57:12.376Z,90.30
2023-03-20T05:02:17.899Z,89.17
2023-03-20T05:07:20.746Z,92.33
2023-03-20T05:12:35.542Z,96.37
2023-03-20T05:17:58.295Z,86.37
2023-03-20T05:23:27.065Z,88.13
2023-03-20T05:28:56.276Z,90.37
2023-03-20T05:34:17.460Z,93.67
2023-03-20T05:39:33.767Z,92.23
2023-03-20T05:44:44.242Z,71.60
2023-03-20T05:50:19.225Z,77.50
2023-03-20T05:55:28.560Z,89.60
2023-03-20T06:00:39.687Z,89.87
2023-03-20T06:06:00.861Z,94.23
2023-03-20T06:11:04.677Z,92.97
2023-03-20T06:16:11.998Z,92.73
2023-03-20T06:21:15.452Z,99.23
2023-03-20T06:26:18.216Z,98.50
2023-03-20T06:31:40.380Z,93.77
2023-03-20T06:36:48.637Z,90.57
2023-03-20T06:41:56.607Z,101.43
2023-03-20T06:47:01.335Z,91.50
2023-03-20T06:52:04.378Z,94.87
2023-03-20T06:57:08.879Z,90.03
2023-03-20T07:02:11.911Z,94.67
2023-03-20T07:07:15.087Z,90.77
2023-03-20T07:12:20.112Z,85.60
2023-03-20T07:17:23.665Z,86.73
2023-03-20T07:22:28.982Z,94.17
2023-03-20T07:27:50.869Z,105.70
2023-03-20T07:32:57.180Z,70.63
2023-03-20T07:38:04.673Z,75.20
2023-03-20T07:43:08.643Z,69.57
2023-03-20T07:48:31.573Z,68.33
2023-03-20T07:53:34.518Z,77.47
2023-03-20T07:58:37.396Z,75.57
2023-03-20T08:03:40.199Z,66.53
2023-03-20T08:08:42.859Z,71.33
2023-03-20T08:13:46.887Z,71.03
2023-03-20T08:18:50.865Z,81.13
2023-03-20T08:23:53.513Z,75.20
2023-03-20T08:28:56.185Z,89.17
2023-03-20T08:33:58.789Z,84.63
2023-03-20T08:39:01.378Z,90.97
2023-03-20T08:44:03.988Z,76.90
2023-03-20T08:49:07.297Z,75.80
2023-03-20T08:54:10.019Z,60.90
2023-03-20T08:59:12.967Z,51.87
2023-03-20T09:04:15.788Z,54.50
2023-03-20T09:09:20.241Z,38.93
2023-03-20T09:14:23.979Z,56.90
2023-03-20T09:19:27.481Z,42.30
2023-03-20T09:24:31.485Z,46.47
2023-03-20T09:29:34.080Z,42.17
2023-03-20T09:34:36.651Z,40.43
2023-03-20T09:39:39.147Z,45.27
2023-03-20T09:45:05.834Z,39.83
2023-03-20T09:50:26.277Z,37.13
2023-03-20T09:55:36.021Z,36.83
2023-03-20T10:00:43.013Z,40.70
2023-03-20T10:06:02.878Z,38.70
2023-03-20T10:11:50.519Z,40.57
2023-03-20T10:17:21.237Z,49.77
2023-03-20T10:22:47.415Z,41.53
2023-03-20T10:27:57.790Z,43.07
2023-03-20T10:33:12.325Z,34.47
2023-03-20T10:38:14.904Z,41.97
2023-03-20T10:43:21.472Z,30.93
2023-03-20T10:49:08.984Z,36.57
2023-03-20T10:54:32.946Z,32.87
2023-03-20T10:59:51.000Z,35.47
2023-03-20T11:04:53.540Z,32.07
2023-03-20T11:10:04.875Z,36.13
2023-03-20T11:15:34.554Z,33.30
2023-03-20T11:20:52.394Z,35.33
2023-03-20T11:25:58.002Z,26.97
2023-03-20T11:31:05.585Z,30.63
2023-03-20T11:36:21.857Z,32.40
2023-03-20T11:41:28.097Z,25.90
2023-03-20T11:46:30.695Z,23.13
2023-03-20T11:51:35.630Z,23.57
2023-03-20T11:56:38.447Z,27.57
2023-03-20T12:01:55.920Z,26.67
2023-03-20T12:07:12.812Z,23.10
2023-03-20T12:12:24.314Z,28.87
2023-03-20T12:17:57.553Z,24.83
2023-03-20T12:23:06.665Z,23.03
2023-03-20T12:28:29.442Z,22.53
2023-03-20T12:33:41.536Z,17.50
2023-03-20T12:38:45.947Z,21.70
2023-03-20T12:44:10.286Z,18.77
2023-03-20T12:49:12.800Z,18.73
2023-03-20T12:54:58.536Z,22.47
2023-03-20T13:00:18.587Z,21.70
2023-03-20T13:05:45.494Z,16.10
2023-03-20T13:10:58.645Z,13.10
2023-03-20T13:16:24.269Z,11.40
2023-03-20T13:21:37.438Z,13.10
2023-03-20T13:26:49.129Z,13.80
2023-03-20T13:32:21.062Z,14.80
2023-03-20T13:37:37.464Z,12.70
2023-03-20T13:42:52.520Z,14.37
2023-03-20T13:47:55.494Z,14.70
2023-03-20T13:53:27.100Z,7.30
2023-03-20T13:58:46.108Z,7.43
2023-03-20T14:03:49.824Z,6.17
2023-03-20T14:08:55.749Z,6.17
2023-03-20T14:14:12.785Z,8.20
2023-03-20T14:19:20.919Z,7.67
2023-03-20T14:24:25.080Z,9.17
2023-03-20T14:29:30.644Z,9.10
2023-03-20T14:34:48.038Z,6.93
2023-03-20T14:39:54.157Z,5.20
2023-03-20T14:45:16.670Z,5.00
2023-03-20T14:50:24.649Z,11.87
2023-03-20T14:55:28.167Z,19.83
2023-03-20T15:00:44.578Z,17.87
2023-03-20T15:05:47.859Z,23.30
2023-03-20T15:10:54.260Z,17.27
2023-03-20T15:15:58.513Z,16.57
2023-03-20T15:21:01.091Z,18.60
2023-03-20T15:26:03.643Z,24.53
2023-03-20T15:31:07.209Z,26.17
2023-03-20T15:36:27.101Z,12.37
2023-03-20T15:41:34.014Z,12.17
2023-03-20T15:46:36.647Z,20.40
2023-03-20T15:51:39.205Z,18.27
2023-03-20T15:56:45.883Z,12.70
2023-03-20T16:01:52.408Z,17.33
2023-03-20T16:07:00.595Z,9.23
2023-03-20T16:12:03.695Z,13.17
2023-03-20T16:17:06.386Z,12.33
2023-03-20T16:22:30.663Z,9.83
2023-03-20T16:27:34.937Z,8.60
2023-03-20T16:32:41.587Z,11.17
2023-03-20T16:37:52.527Z,10.90
2023-03-20T16:42:57.198Z,9.30
2023-03-20T16:48:11.931Z,10.17
2023-03-20T16:53:23.544Z,12.23
2023-03-20T16:58:30.953Z,9.37
2023-03-20T17:03:44.806Z,19.30
2023-03-20T17:08:50.659Z,10.97
2023-03-20T17:13:53.373Z,11.00
2023-03-20T17:19:01.462Z,15.77
2023-03-20T17:24:04.214Z,7.47
2023-03-20T17:29:07.370Z,11.37
2023-03-20T17:34:14.723Z,8.10
2023-03-20T17:39:19.655Z,11.30
2023-03-20T17:44:22.943Z,11.27
2023-03-20T17:49:27.654Z,11.83
2023-03-20T17:54:30.532Z,17.97
2023-03-20T17:59:32.995Z,10.93
2023-03-20T18:04:36.058Z,10.17
2023-03-20T18:09:40.128Z,14.37
2023-03-20T18:14:43.232Z,11.30
2023-03-20T18:19:45.931Z,8.93
2023-03-20T18:24:48.548Z,15.40
2023-03-20T18:29:51.561Z,11.10
2023-03-20T18:34:55.179Z,8.07
2023-03-20T18:40:00.950Z,11.43
2023-03-20T18:45:03.737Z,10.03
2023-03-20T18:50:13.298Z,15.00
2023-03-20T18:55:16.406Z,18.53
2023-03-20T19:00:21.532Z,16.30
2023-03-20T19:05:26.351Z,11.90
2023-03-20T19:10:38.134Z,12.87
2023-03-20T19:15:41.635Z,17.80
2023-03-20T19:20:51.952Z,15.30
2023-03-20T19:25:55.313Z,11.37
2023-03-20T19:30:57.826Z,14.07
2023-03-20T19:36:05.934Z,12.97
2023-03-20T19:41:08.971Z,9.93
2023-03-20T19:46:20.409Z,16.50
2023-03-20T19:51:31.992Z,16.07
2023-03-20T19:56:34.679Z,11.97
2023-03-20T20:01:37.394Z,17.83
2023-03-20T20:06:41.625Z,11.53
2023-03-20T20:11:44.562Z,12.93
2023-03-20T20:16:48.912Z,11.63
2023-03-20T20:22:19.700Z,11.50
2023-03-20T20:27:18.384Z,8.90
2023-03-20T20:32:23.957Z,7.87
2023-03-20T20:42:51.992Z,15.07
2023-03-20T20:47:56.133Z,19.10
2023-03-20T20:52:59.280Z,17.77
2023-03-20T20:58:03.754Z,12.67
2023-03-20T21:03:06.647Z,10.10
2023-03-20T21:08:09.577Z,21.00
2023-03-20T21:13:12.200Z,17.90
2023-03-20T21:18:14.952Z,10.40
2023-03-20T21:23:17.707Z,11.20
2023-03-20T21:28:20.257Z,9.53
2023-03-20T21:33:23.131Z,7.90
2023-03-20T21:43:49.850Z,8.50
2023-03-20T21:49:47.689Z,9.83
2023-03-20T22:00:19.171Z,9.53
2023-03-20T22:05:37.362Z,10.53
2023-03-20T22:11:20.199Z,9.50
2023-03-20T22:16:36.693Z,15.40
2023-03-20T22:32:47.760Z,8.47
2023-03-20T22:38:17.459Z,21.90
2023-03-20T22:43:01.542Z,10.17
2023-03-20T22:48:04.925Z,10.60
2023-03-20T22:53:07.691Z,18.60
2023-03-20T22:58:14.835Z,10.07
2023-03-20T23:03:33.317Z,6.33
2023-03-20T23:08:48.112Z,9.83
2023-03-20T23:13:55.046Z,11.10
2023-03-20T23:18:57.629Z,9.63
2023-03-20T23:24:00.236Z,10.43
2023-03-20T23:29:03.519Z,6.90
2023-03-20T23:34:06.267Z,11.20
2023-03-20T23:39:10.870Z,19.57
2023-03-20T23:44:13.408Z,11.37
2023-03-20T23:49:16.731Z,23.63
2023-03-20T23:54:19.450Z,12.23
2023-03-20T23:59:22.425Z,11.77
